Joe Creek, South Dakota
Current Conditions -  °F | °C
As of 5:53 AM on Saturday 20 Dec 2014 (Local Time) from KPIR Reporting Station
Haze Haze  
Wind Chill: 12°   Ceiling: 100
Heat Index: 20°   Visibility: 0mi
Dew Point: 15°   Wind: 6mph
Humidity: 81%   Direction: 90°E
Pressure: 29.95"   Gusts: NA
Location:  44.5157°N, 99.7243°W
Report Text: KPIR 201153Z AUTO 09005KT M1/4SM HZ VV001 M07/M09 A2995 RMK AO2 SLP168 I1000 I6000 T10671094 11067 21111 56003
Loading
Personal Weather Stations






























Interactive Weather Map New forecast layout! Learn more

10-Day Weather Forecast

Advertisements
Track Severe Weather on mobile